Rio Piracicaba, Brazil
Current Conditions -  °F | °C
As of 6:00 AM on Thursday 23 Oct 2014 (Local Time) from SBCF Reporting Station
Broken Clouds Broken Clouds  
Wind Chill: 64°   Ceiling: 2500
Heat Index: 64°   Visibility: 6mi
Dew Point: 57°   Wind: 12mph
Humidity: 77%   Direction: 110°ESE
Pressure: 30.15"   Gusts: NA
Location:  19.93°S, 43.17°W
Report Text: SBCF 230800Z 11010KT 9999 BKN025 18/14 Q1021
Loading
Personal Weather Stations






























Interactive Weather Map
Tropical Storm Tracking
New forecast layout! Learn more

10-Day Weather Forecast

Advertisements
Track Severe Weather on mobile